Time;durP1;ratioP1;P1;durP2;ratioP2;P2;SDS_P1;SDS_P2;PMS_P1;PMS_P2;Temp;Humidity;BMP_temperature;BMP_pressure;BME280_temperature;BME280_humidity;BME280_pressure;Samples;Min_cycle;Max_cycle;Signal;HPM_P1;HPM_P2
2020/12/28 00:00:45;;;;;;;1.20;1.10;;;3.90;98.00;;;;;;4990768;28;20457;-64
2020/12/28 00:03:13;;;;;;;1.20;1.00;;;4.00;98.00;;;;;;4988866;28;20461;-66
2020/12/28 00:05:40;;;;;;;1.20;1.00;;;3.90;98.00;;;;;;4990297;28;21155;-64
2020/12/28 00:08:06;;;;;;;1.30;1.10;;;4.00;98.00;;;;;;4988579;28;20469;-67
2020/12/28 00:10:33;;;;;;;1.50;1.10;;;3.90;98.00;;;;;;4991667;28;20460;-65
2020/12/28 00:13:00;;;;;;;1.20;1.00;;;3.70;98.00;;;;;;4992157;28;20499;-65
2020/12/28 00:15:28;;;;;;;1.50;1.27;;;3.70;98.00;;;;;;4995701;28;20537;-65
2020/12/28 00:17:56;;;;;;;1.40;1.30;;;3.70;98.00;;;;;;4994008;28;20460;-66
2020/12/28 00:20:26;;;;;;;1.20;1.00;;;3.60;98.00;;;;;;4995720;28;20460;-65
2020/12/28 00:22:52;;;;;;;3.23;1.30;;;3.70;98.00;;;;;;4993729;28;21004;-65
2020/12/28 00:25:20;;;;;;;1.20;1.00;;;3.70;98.00;;;;;;4995746;28;20475;-66
2020/12/28 00:27:47;;;;;;;1.50;1.20;;;3.60;98.00;;;;;;4993765;28;20464;-66
2020/12/28 00:30:14;;;;;;;1.30;1.00;;;3.70;98.00;;;;;;4994399;28;20957;-65
2020/12/28 00:32:41;;;;;;;1.50;1.20;;;3.70;98.00;;;;;;4995384;28;20483;-65
2020/12/28 00:35:10;;;;;;;1.20;1.00;;;3.60;98.00;;;;;;4993225;28;20965;-66
2020/12/28 00:37:39;;;;;;;1.30;1.00;;;3.50;98.00;;;;;;4995554;28;20522;-65
2020/12/28 00:40:09;;;;;;;1.20;0.93;;;3.60;98.00;;;;;;4993487;28;20468;-64
2020/12/28 00:42:37;;;;;;;1.20;1.00;;;3.60;98.00;;;;;;4995380;28;20514;-64
2020/12/28 00:45:05;;;;;;;1.20;1.00;;;3.60;98.00;;;;;;4993497;28;20487;-64
2020/12/28 00:47:31;;;;;;;1.30;1.10;;;3.50;98.00;;;;;;4995523;28;20452;-64
2020/12/28 00:49:58;;;;;;;1.20;1.00;;;3.60;98.00;;;;;;4993810;28;20500;-67
2020/12/28 00:52:24;;;;;;;1.30;1.20;;;3.70;98.00;;;;;;4995543;28;20461;-65
2020/12/28 00:54:55;;;;;;;1.20;1.00;;;3.70;98.00;;;;;;4993796;28;20464;-66
2020/12/28 00:57:21;;;;;;;1.20;0.90;;;3.70;98.00;;;;;;4995388;28;20464;-65
2020/12/28 00:59:48;;;;;;;1.20;0.97;;;3.80;98.00;;;;;;4993365;28;20538;-66
2020/12/28 01:02:14;;;;;;;1.20;1.00;;;3.80;98.00;;;;;;4995453;28;20503;-66
2020/12/28 01:04:41;;;;;;;1.43;1.20;;;3.70;98.00;;;;;;4993474;28;20475;-65
2020/12/28 01:07:08;;;;;;;1.77;1.27;;;3.90;98.00;;;;;;4995096;28;20468;-65
2020/12/28 01:09:34;;;;;;;1.20;1.00;;;3.80;98.00;;;;;;4992995;28;20459;-66
2020/12/28 01:12:02;;;;;;;1.20;1.00;;;3.90;98.00;;;;;;4995101;28;20519;-66
2020/12/28 01:14:28;;;;;;;1.20;1.00;;;3.90;98.00;;;;;;4993165;28;20918;-65
2020/12/28 01:16:55;;;;;;;1.20;0.93;;;3.90;98.00;;;;;;4995039;28;20468;-64
2020/12/28 01:19:21;;;;;;;1.20;1.00;;;4.00;98.00;;;;;;4993169;28;20484;-64
2020/12/28 01:21:48;;;;;;;1.20;1.00;;;4.10;98.00;;;;;;4994901;28;20460;-65
2020/12/28 01:24:14;;;;;;;1.20;0.90;;;4.10;98.00;;;;;;4992099;28;20468;-65
2020/12/28 01:26:42;;;;;;;2.63;1.13;;;4.10;98.00;;;;;;4994579;28;21029;-65
2020/12/28 01:29:10;;;;;;;1.20;1.00;;;4.00;98.00;;;;;;4991285;28;20460;-65
2020/12/28 01:31:37;;;;;;;1.20;0.90;;;4.00;98.00;;;;;;4994665;28;20465;-65
2020/12/28 01:34:04;;;;;;;1.20;1.10;;;4.10;98.00;;;;;;4992395;28;21002;-67
2020/12/28 01:36:30;;;;;;;1.53;1.30;;;4.00;98.00;;;;;;4994494;28;20961;-66
2020/12/28 01:38:57;;;;;;;1.20;1.00;;;3.90;98.00;;;;;;4992497;28;20460;-64
2020/12/28 01:41:24;;;;;;;1.20;1.00;;;4.00;98.00;;;;;;4993068;28;20457;-64
2020/12/28 01:43:50;;;;;;;1.20;1.00;;;4.10;98.00;;;;;;4992287;28;20457;-64
2020/12/28 01:46:18;;;;;;;1.20;1.00;;;4.20;98.00;;;;;;4994361;28;20456;-66
2020/12/28 01:48:45;;;;;;;1.20;0.90;;;4.40;98.00;;;;;;4992233;28;20464;-65
2020/12/28 01:51:11;;;;;;;1.20;0.90;;;4.70;98.00;;;;;;4994218;28;20846;-65
2020/12/28 01:53:39;;;;;;;1.20;0.90;;;4.90;98.00;;;;;;4992097;28;21183;-65
2020/12/28 01:56:06;;;;;;;1.20;0.90;;;5.00;98.00;;;;;;4994196;28;20524;-66
2020/12/28 01:58:34;;;;;;;1.20;0.90;;;5.10;98.00;;;;;;4991731;28;20450;-66
2020/12/28 02:01:00;;;;;;;1.20;0.90;;;5.20;98.00;;;;;;4993866;28;20460;-65
2020/12/28 02:03:28;;;;;;;1.20;1.00;;;5.40;98.00;;;;;;4991692;28;20503;-65
2020/12/28 02:05:56;;;;;;;1.20;1.10;;;5.50;98.00;;;;;;4992750;28;20470;-65
2020/12/28 02:08:22;;;;;;;1.20;1.00;;;5.50;98.00;;;;;;4991903;28;20493;-66
2020/12/28 02:10:54;;;;;;;1.20;1.00;;;5.50;98.00;;;;;;4993852;28;20527;-66
2020/12/28 02:13:21;;;;;;;1.20;0.90;;;5.50;98.00;;;;;;4991463;28;21039;-65
2020/12/28 02:15:48;;;;;;;1.20;0.90;;;5.50;98.00;;;;;;4993907;28;20465;-67
2020/12/28 02:18:15;;;;;;;1.20;1.00;;;5.60;98.00;;;;;;4991945;28;20470;-65
2020/12/28 02:20:42;;;;;;;1.20;0.90;;;5.60;98.00;;;;;;4993812;28;20462;-66
2020/12/28 02:23:09;;;;;;;1.43;1.20;;;5.60;98.00;;;;;;4991479;28;20810;-65
2020/12/28 02:25:36;;;;;;;1.20;1.00;;;5.80;98.00;;;;;;4993661;28;20465;-65
2020/12/28 02:28:03;;;;;;;1.20;0.90;;;5.80;98.00;;;;;;4991457;28;20461;-68
2020/12/28 02:30:29;;;;;;;1.20;0.90;;;5.90;98.00;;;;;;4993403;28;20497;-69
2020/12/28 02:32:57;;;;;;;1.20;1.00;;;5.80;98.00;;;;;;4992747;28;20922;-65
2020/12/28 02:35:24;;;;;;;1.20;0.90;;;5.80;98.00;;;;;;4993107;28;20806;-65
2020/12/28 02:37:52;;;;;;;1.20;0.90;;;5.80;98.00;;;;;;4991727;28;20465;-68
2020/12/28 02:40:19;;;;;;;1.20;0.90;;;5.80;98.00;;;;;;4989401;28;20463;-65
2020/12/28 02:42:47;;;;;;;1.20;0.90;;;5.70;98.00;;;;;;4992755;28;20758;-68
2020/12/28 02:45:14;;;;;;;1.20;0.90;;;5.70;98.00;;;;;;4991018;28;20460;-64
2020/12/28 02:47:40;;;;;;;1.20;1.00;;;5.70;98.00;;;;;;4993117;28;20456;-67
2020/12/28 02:50:07;;;;;;;1.20;1.00;;;5.70;98.00;;;;;;4991377;28;21018;-68
2020/12/28 02:52:33;;;;;;;1.20;1.00;;;5.60;98.00;;;;;;4993065;28;20461;-67
2020/12/28 02:55:00;;;;;;;1.20;0.90;;;5.50;98.00;;;;;;4990567;28;20750;-68
2020/12/28 02:57:34;;;;;;;1.20;0.90;;;5.40;98.00;;;;;;5150492;27;20893;-66
2020/12/28 03:00:01;;;;;;;1.20;0.90;;;5.40;98.00;;;;;;5127174;28;20447;-65
2020/12/28 03:02:28;;;;;;;1.20;0.90;;;5.40;98.00;;;;;;5129786;28;20456;-66
2020/12/28 03:04:54;;;;;;;1.20;0.90;;;5.50;98.00;;;;;;5126986;28;20451;-65
2020/12/28 03:07:21;;;;;;;1.20;0.93;;;5.50;98.00;;;;;;5129656;28;20451;-66
2020/12/28 03:09:47;;;;;;;1.20;1.00;;;5.40;98.00;;;;;;5127172;28;20474;-66
2020/12/28 03:12:14;;;;;;;1.20;0.90;;;5.30;98.00;;;;;;5129307;28;20450;-66
2020/12/28 03:14:42;;;;;;;1.20;1.00;;;5.20;98.00;;;;;;5127696;27;20460;-67
2020/12/28 03:17:09;;;;;;;1.20;1.00;;;5.20;98.00;;;;;;5128695;28;20478;-66
2020/12/28 03:19:35;;;;;;;1.20;1.00;;;5.10;98.00;;;;;;5126982;28;20454;-65
2020/12/28 03:22:02;;;;;;;1.20;0.90;;;5.00;98.00;;;;;;5129453;28;20455;-66
2020/12/28 03:24:28;;;;;;;1.20;0.90;;;4.90;98.00;;;;;;5125404;28;20487;-67
2020/12/28 03:27:01;;;;;;;1.17;0.90;;;4.90;98.00;;;;;;5129447;28;20448;-65
2020/12/28 03:29:28;;;;;;;1.20;1.00;;;4.90;98.00;;;;;;5127334;28;20455;-65
2020/12/28 03:31:56;;;;;;;1.20;1.00;;;4.80;98.00;;;;;;5129346;28;20446;-66
2020/12/28 03:34:22;;;;;;;1.20;1.00;;;4.90;98.00;;;;;;5127127;28;20462;-66
2020/12/28 03:36:49;;;;;;;1.20;1.00;;;4.90;98.00;;;;;;5129113;28;20523;-67
2020/12/28 03:39:15;;;;;;;1.10;0.90;;;4.90;98.00;;;;;;5127068;28;21263;-66
2020/12/28 03:41:42;;;;;;;1.10;0.90;;;5.00;98.00;;;;;;5128909;28;20455;-66
2020/12/28 03:44:09;;;;;;;1.17;1.00;;;5.00;98.00;;;;;;5127203;28;20458;-65
2020/12/28 03:46:35;;;;;;;1.20;0.90;;;5.10;98.00;;;;;;5128854;28;20462;-66
2020/12/28 03:49:03;;;;;;;1.20;0.97;;;5.10;98.00;;;;;;5126831;28;20523;-65
2020/12/28 03:51:29;;;;;;;1.20;1.00;;;5.10;98.00;;;;;;5128773;28;20458;-65
2020/12/28 03:53:56;;;;;;;1.20;0.90;;;5.00;98.00;;;;;;5126776;28;20508;-67
2020/12/28 03:56:22;;;;;;;2.37;1.77;;;5.00;98.00;;;;;;5128398;28;20496;-65
2020/12/28 03:58:49;;;;;;;1.87;1.30;;;5.00;98.00;;;;;;5126778;28;20457;-65
2020/12/28 04:01:16;;;;;;;1.20;1.00;;;5.10;98.00;;;;;;5127305;28;20864;-66
2020/12/28 04:03:43;;;;;;;1.20;0.90;;;5.10;98.00;;;;;;5126741;28;20450;-64
2020/12/28 04:06:10;;;;;;;1.20;1.00;;;5.20;98.00;;;;;;5128491;28;20443;-65
2020/12/28 04:08:37;;;;;;;1.20;0.90;;;5.30;98.00;;;;;;5114642;28;20480;-65
2020/12/28 04:11:04;;;;;;;1.20;0.90;;;5.30;98.00;;;;;;5114699;28;20527;-65
2020/12/28 04:13:30;;;;;;;1.20;1.00;;;5.20;98.00;;;;;;5112915;28;20457;-65
2020/12/28 04:15:59;;;;;;;1.20;0.90;;;5.20;98.00;;;;;;5113079;28;21030;-65
2020/12/28 04:18:25;;;;;;;1.20;1.00;;;5.10;98.00;;;;;;5112717;28;20448;-66
2020/12/28 04:20:52;;;;;;;1.20;0.97;;;5.00;98.00;;;;;;5114520;28;20467;-66
2020/12/28 04:23:19;;;;;;;1.17;0.90;;;4.80;98.00;;;;;;5111411;28;20934;-66
2020/12/28 04:25:46;;;;;;;1.20;0.90;;;4.70;98.00;;;;;;5114519;28;21196;-66
2020/12/28 04:28:12;;;;;;;1.20;0.90;;;4.60;98.00;;;;;;5112632;28;20444;-65
2020/12/28 04:30:38;;;;;;;1.20;1.00;;;4.60;98.00;;;;;;5114267;28;20505;-67
2020/12/28 04:33:05;;;;;;;1.20;1.00;;;4.70;98.00;;;;;;5114076;28;20448;-66
2020/12/28 04:35:32;;;;;;;1.17;0.90;;;4.60;98.00;;;;;;5113088;28;20456;-65
2020/12/28 04:37:58;;;;;;;1.17;0.90;;;4.60;98.00;;;;;;5114140;28;20459;-66
2020/12/28 04:40:26;;;;;;;1.20;0.90;;;4.50;98.00;;;;;;5112281;27;21001;-66
2020/12/28 04:42:55;;;;;;;1.20;0.90;;;4.50;98.00;;;;;;5114354;28;20478;-66
2020/12/28 04:45:22;;;;;;;1.20;1.00;;;4.70;98.00;;;;;;5111846;28;20453;-65
2020/12/28 04:47:56;;;;;;;1.20;0.90;;;4.70;98.00;;;;;;5112585;28;20530;-66
2020/12/28 04:50:23;;;;;;;1.20;1.00;;;4.60;98.00;;;;;;5111961;28;20467;-65
2020/12/28 04:52:50;;;;;;;1.20;1.00;;;4.50;98.00;;;;;;5114173;28;20474;-64
2020/12/28 04:55:17;;;;;;;1.20;0.90;;;4.50;98.00;;;;;;5110433;28;20448;-64
2020/12/28 04:57:45;;;;;;;1.17;0.90;;;4.50;98.00;;;;;;5114275;28;20452;-65
2020/12/28 05:00:11;;;;;;;1.20;1.00;;;4.60;98.00;;;;;;5111820;28;20468;-65
2020/12/28 05:02:43;;;;;;;1.20;1.00;;;4.40;98.00;;;;;;5114005;28;20466;-65
2020/12/28 05:05:10;;;;;;;1.20;0.90;;;4.40;98.00;;;;;;5111735;28;20464;-64
2020/12/28 05:07:36;;;;;;;1.20;0.90;;;4.30;98.00;;;;;;5113684;28;20820;-66
2020/12/28 05:10:04;;;;;;;1.20;0.90;;;4.30;98.00;;;;;;5111754;28;20562;-64
2020/12/28 05:12:32;;;;;;;1.20;1.00;;;4.40;98.00;;;;;;5113618;28;20459;-67
2020/12/28 05:15:06;;;;;;;1.13;0.90;;;4.40;98.00;;;;;;5111627;28;20474;-65
2020/12/28 05:17:34;;;;;;;1.20;1.00;;;4.60;98.00;;;;;;5113413;28;20985;-65
2020/12/28 05:20:01;;;;;;;1.20;0.90;;;4.50;98.00;;;;;;5110588;28;20463;-64
2020/12/28 05:22:28;;;;;;;1.10;0.90;;;4.50;98.00;;;;;;5113328;28;20459;-64
2020/12/28 05:24:56;;;;;;;1.20;0.90;;;4.50;98.00;;;;;;5111416;28;20455;-65
2020/12/28 05:27:23;;;;;;;1.20;0.90;;;4.60;98.00;;;;;;5113345;28;20813;-65
2020/12/28 05:29:50;;;;;;;1.20;0.90;;;4.50;98.00;;;;;;5111348;28;20903;-65
2020/12/28 05:32:18;;;;;;;1.20;0.90;;;4.40;98.00;;;;;;5113123;28;20456;-66
2020/12/28 05:34:46;;;;;;;1.20;0.90;;;4.30;98.00;;;;;;5111203;28;21021;-65
2020/12/28 05:37:13;;;;;;;1.17;1.00;;;4.20;98.00;;;;;;5112992;28;20868;-65
2020/12/28 05:39:40;;;;;;;1.10;0.90;;;4.10;98.00;;;;;;5111078;28;20964;-65
2020/12/28 05:42:09;;;;;;;1.10;0.90;;;4.10;98.00;;;;;;5112962;28;20451;-66
2020/12/28 05:44:36;;;;;;;1.10;0.90;;;4.20;98.00;;;;;;5111247;28;20543;-65
2020/12/28 05:47:06;;;;;;;1.20;0.90;;;4.30;98.00;;;;;;5112816;28;20464;-66
2020/12/28 05:49:38;;;;;;;1.20;0.90;;;4.20;98.00;;;;;;5109581;28;20919;-64
2020/12/28 05:52:06;;;;;;;1.20;1.03;;;4.20;98.00;;;;;;5112804;28;20498;-65
2020/12/28 05:54:34;;;;;;;1.30;1.30;;;4.20;98.00;;;;;;5110824;28;20479;-64
2020/12/28 05:57:01;;;;;;;1.20;1.00;;;4.30;98.00;;;;;;5112560;28;20969;-67
2020/12/28 05:59:28;;;;;;;1.20;1.03;;;4.40;98.00;;;;;;5110578;28;20451;-64
2020/12/28 06:01:54;;;;;;;1.20;0.90;;;4.40;98.00;;;;;;5111336;28;20448;-65
2020/12/28 06:04:21;;;;;;;1.20;1.00;;;4.60;98.00;;;;;;5110372;28;20820;-66
2020/12/28 06:06:49;;;;;;;1.40;1.13;;;4.70;98.00;;;;;;5112412;28;20455;-64
2020/12/28 06:09:17;;;;;;;1.20;1.00;;;4.90;98.00;;;;;;5110558;28;20463;-66
2020/12/28 06:11:43;;;;;;;1.10;0.90;;;5.00;98.00;;;;;;5111174;28;20459;-66
2020/12/28 06:14:17;;;;;;;1.77;1.10;;;5.10;98.00;;;;;;5110616;28;20487;-64
2020/12/28 06:16:45;;;;;;;1.20;1.00;;;5.10;98.00;;;;;;5112040;28;20489;-64
2020/12/28 06:19:22;;;;;;;1.20;1.00;;;5.20;98.00;;;;;;5110495;28;20870;-66
2020/12/28 06:21:50;;;;;;;1.20;0.90;;;5.20;98.00;;;;;;5112335;27;20471;-65
2020/12/28 06:24:28;;;;;;;1.10;1.00;;;5.20;98.00;;;;;;5110071;28;20984;-67
2020/12/28 06:27:02;;;;;;;1.20;0.90;;;5.20;98.00;;;;;;5112192;28;20913;-67
2020/12/28 06:29:29;;;;;;;1.20;1.00;;;5.20;98.00;;;;;;5110208;28;20481;-68
2020/12/28 06:31:55;;;;;;;1.20;1.00;;;5.20;98.00;;;;;;5112021;28;20475;-68
2020/12/28 06:34:22;;;;;;;1.20;0.97;;;5.20;98.00;;;;;;5110270;28;21017;-66
2020/12/28 06:37:00;;;;;;;1.10;0.90;;;5.20;98.00;;;;;;5110744;28;20483;-67
2020/12/28 06:39:27;;;;;;;1.10;0.90;;;5.20;98.00;;;;;;5110221;28;20451;-64
2020/12/28 06:41:53;;;;;;;1.13;1.00;;;5.10;98.00;;;;;;5112193;28;20458;-64
2020/12/28 06:44:27;;;;;;;1.20;0.90;;;5.10;98.00;;;;;;5110344;28;20460;-66
2020/12/28 06:46:54;;;;;;;1.20;1.10;;;5.20;98.00;;;;;;5111982;28;20921;-64
2020/12/28 06:49:21;;;;;;;1.50;1.13;;;5.10;98.00;;;;;;5110447;28;20509;-65
2020/12/28 06:51:47;;;;;;;1.20;1.00;;;5.10;98.00;;;;;;5111982;28;20467;-64
2020/12/28 06:54:21;;;;;;;1.10;1.00;;;5.10;98.00;;;;;;5110396;28;20455;-66
2020/12/28 06:56:49;;;;;;;1.10;0.90;;;5.10;98.00;;;;;;5111772;28;20957;-66
2020/12/28 06:59:16;;;;;;;1.17;0.90;;;5.00;98.00;;;;;;5110164;28;20455;-67
2020/12/28 07:01:46;;;;;;;1.10;0.90;;;5.00;98.00;;;;;;5111837;28;20458;-68
2020/12/28 07:04:14;;;;;;;1.20;1.00;;;5.00;98.00;;;;;;5109881;28;20458;-67
2020/12/28 07:06:41;;;;;;;1.10;0.90;;;5.00;98.00;;;;;;5093530;28;20459;-68
2020/12/28 07:09:08;;;;;;;1.10;0.90;;;5.00;98.00;;;;;;5109696;28;20458;-67
2020/12/28 07:11:36;;;;;;;1.10;0.90;;;5.10;98.00;;;;;;5111616;28;20451;-66
2020/12/28 07:14:04;;;;;;;1.10;0.93;;;5.10;98.00;;;;;;5108512;28;20455;-64
2020/12/28 07:16:31;;;;;;;1.10;0.90;;;5.20;98.00;;;;;;5111534;28;21012;-65
2020/12/28 07:19:02;;;;;;;1.10;0.90;;;5.20;98.00;;;;;;5109847;28;20456;-64
2020/12/28 07:21:29;;;;;;;1.10;1.00;;;5.20;98.00;;;;;;5111612;28;20546;-65
2020/12/28 07:23:55;;;;;;;1.10;0.90;;;5.20;98.00;;;;;;5109520;28;20463;-65
2020/12/28 07:26:22;;;;;;;1.10;0.90;;;5.10;98.00;;;;;;5111616;28;20456;-64
2020/12/28 07:28:50;;;;;;;1.10;0.90;;;5.10;98.00;;;;;;5109518;28;20512;-66
2020/12/28 07:31:21;;;;;;;1.27;1.10;;;5.30;98.00;;;;;;5111511;28;21073;-65
2020/12/28 07:33:48;;;;;;;1.10;0.90;;;5.30;98.00;;;;;;5109143;28;20490;-64
2020/12/28 07:36:16;;;;;;;1.10;0.90;;;5.30;98.00;;;;;;5110121;28;20903;-64
2020/12/28 07:38:44;;;;;;;1.10;0.90;;;5.30;98.00;;;;;;5109118;28;20456;-64
2020/12/28 07:41:14;;;;;;;1.10;1.00;;;5.30;98.00;;;;;;5111188;28;20481;-65
2020/12/28 07:43:48;;;;;;;1.10;0.90;;;5.30;98.00;;;;;;5111360;28;20474;-66
2020/12/28 07:46:24;;;;;;;1.10;1.00;;;5.40;98.00;;;;;;5115265;28;20477;-64
2020/12/28 07:48:53;;;;;;;1.10;0.90;;;5.50;98.00;;;;;;5113189;28;20454;-65
2020/12/28 07:51:24;;;;;;;1.10;0.90;;;5.50;98.00;;;;;;5115142;28;20523;-68
2020/12/28 07:53:55;;;;;;;1.10;1.00;;;5.40;98.00;;;;;;5113082;28;20536;-67
2020/12/28 07:56:29;;;;;;;1.10;1.00;;;5.40;98.00;;;;;;5115205;28;20537;-69
2020/12/28 07:59:08;;;;;;;1.10;0.90;;;5.40;98.00;;;;;;5112375;28;20465;-66
2020/12/28 08:01:43;;;;;;;1.10;0.90;;;5.60;98.00;;;;;;5115150;28;20519;-68
2020/12/28 08:04:17;;;;;;;1.20;1.00;;;5.70;98.00;;;;;;5112884;28;20455;-68
2020/12/28 08:06:44;;;;;;;1.20;0.90;;;5.70;98.00;;;;;;5114971;28;20449;-67
2020/12/28 08:09:11;;;;;;;1.17;1.00;;;5.50;98.00;;;;;;5112945;28;20501;-66
2020/12/28 08:11:38;;;;;;;1.10;1.00;;;5.20;98.00;;;;;;5114801;28;20553;-68
2020/12/28 08:14:09;;;;;;;1.10;0.90;;;5.00;98.00;;;;;;5112431;28;20478;-67
2020/12/28 08:16:37;;;;;;;1.10;1.00;;;4.70;98.00;;;;;;5113874;28;20478;-67
2020/12/28 08:19:04;;;;;;;1.20;1.10;;;4.60;98.00;;;;;;5111756;28;21026;-67
2020/12/28 08:21:39;;;;;;;2.53;1.57;;;4.60;98.00;;;;;;5113876;28;20451;-66
2020/12/28 08:24:05;;;;;;;1.10;1.00;;;4.60;98.00;;;;;;5112385;27;20459;-67
2020/12/28 08:26:32;;;;;;;1.57;1.47;;;4.60;98.00;;;;;;5114539;28;20462;-69
2020/12/28 08:29:00;;;;;;;1.10;1.10;;;4.50;98.00;;;;;;5112289;28;20447;-66
2020/12/28 08:31:28;;;;;;;1.10;1.00;;;4.50;98.00;;;;;;5114451;28;20466;-67
2020/12/28 08:34:03;;;;;;;1.10;0.90;;;4.50;98.00;;;;;;5111933;28;20491;-68
2020/12/28 08:36:30;;;;;;;1.77;1.27;;;4.50;98.00;;;;;;5114238;28;20992;-68
2020/12/28 08:38:57;;;;;;;2.40;1.37;;;4.50;98.00;;;;;;5112007;28;20460;-68
2020/12/28 08:41:23;;;;;;;2.03;1.23;;;4.50;98.00;;;;;;5112883;28;20529;-66
2020/12/28 08:43:50;;;;;;;1.10;0.90;;;4.50;98.00;;;;;;5111807;28;20460;-66
2020/12/28 08:46:23;;;;;;;1.10;0.90;;;4.60;98.00;;;;;;5113873;28;20451;-68
2020/12/28 08:48:50;;;;;;;1.10;0.90;;;4.80;98.00;;;;;;5111754;28;20459;-67
2020/12/28 08:51:19;;;;;;;1.10;1.00;;;4.80;98.00;;;;;;5114271;28;20820;-66
2020/12/28 08:53:46;;;;;;;1.20;1.00;;;4.80;98.00;;;;;;5111686;28;20768;-66
2020/12/28 08:56:13;;;;;;;1.10;0.90;;;4.80;98.00;;;;;;5112965;28;21054;-66
2020/12/28 08:58:39;;;;;;;1.20;1.17;;;4.80;98.00;;;;;;5110817;28;20458;-66
2020/12/28 09:01:06;;;;;;;1.10;0.97;;;4.80;98.00;;;;;;5113372;28;20535;-66
2020/12/28 09:03:35;;;;;;;1.10;1.03;;;4.70;98.00;;;;;;5112843;28;20455;-67
2020/12/28 09:06:02;;;;;;;1.10;0.90;;;4.70;98.00;;;;;;5111411;28;20489;-69
2020/12/28 09:08:29;;;;;;;1.10;0.90;;;4.90;98.00;;;;;;5112947;28;20447;-65
2020/12/28 09:10:56;;;;;;;1.10;0.90;;;5.00;98.00;;;;;;5110971;28;20461;-66
2020/12/28 09:13:23;;;;;;;2.03;1.33;;;5.40;98.00;;;;;;5113253;28;20515;-66
2020/12/28 09:15:50;;;;;;;1.10;1.00;;;6.00;98.00;;;;;;5109524;28;20483;-66
2020/12/28 09:18:17;;;;;;;5.93;2.33;;;6.00;98.00;;;;;;5112801;28;20458;-66
2020/12/28 09:20:44;;;;;;;1.20;0.93;;;5.80;98.00;;;;;;5110759;28;20460;-66
2020/12/28 09:23:11;;;;;;;1.23;1.10;;;5.70;98.00;;;;;;5112851;28;20814;-69
2020/12/28 09:25:38;;;;;;;1.57;1.20;;;5.70;98.00;;;;;;5110768;28;20472;-66
2020/12/28 09:28:05;;;;;;;1.20;1.10;;;5.50;98.00;;;;;;5112533;28;20456;-66
2020/12/28 09:30:32;;;;;;;1.87;1.30;;;5.50;98.00;;;;;;5105122;28;20472;-67
2020/12/28 09:32:58;;;;;;;1.20;1.03;;;5.30;98.00;;;;;;5092293;28;20870;-67
2020/12/28 09:35:25;;;;;;;1.37;1.30;;;5.20;98.00;;;;;;5090101;28;20459;-66
2020/12/28 09:37:51;;;;;;;1.20;1.00;;;5.10;98.00;;;;;;5090353;28;20487;-67
2020/12/28 09:40:19;;;;;;;1.47;1.33;;;5.10;98.00;;;;;;5089627;28;20460;-67
2020/12/28 09:42:46;;;;;;;2.17;1.50;;;5.00;98.00;;;;;;5091800;28;20464;-67
2020/12/28 09:47:56;;;;;;;1.10;1.00;;;4.90;98.00;;;;;;5080739;28;20496;-68
2020/12/28 09:50:24;;;;;;;1.20;1.03;;;4.90;98.00;;;;;;5089661;28;20472;-67
2020/12/28 09:52:50;;;;;;;1.50;1.33;;;4.90;98.00;;;;;;5091790;28;20534;-66
2020/12/28 09:55:17;;;;;;;1.10;1.00;;;4.90;98.00;;;;;;5090044;28;20505;-66
2020/12/28 09:57:43;;;;;;;2.00;1.57;;;4.90;98.00;;;;;;5091402;28;21015;-67
2020/12/28 10:00:11;;;;;;;1.27;1.17;;;5.00;98.00;;;;;;5089790;28;20461;-65
2020/12/28 10:02:40;;;;;;;1.77;1.47;;;4.90;98.00;;;;;;5092150;28;20455;-65
2020/12/28 10:05:07;;;;;;;1.53;1.20;;;4.90;98.00;;;;;;5089613;28;20479;-66
2020/12/28 10:07:37;;;;;;;1.77;1.37;;;4.90;98.00;;;;;;5091180;28;20463;-66
2020/12/28 10:10:04;;;;;;;1.50;1.33;;;4.90;98.00;;;;;;5089915;28;20919;-66
2020/12/28 10:12:30;;;;;;;1.70;1.23;;;5.00;98.00;;;;;;5091803;28;20478;-64
2020/12/28 10:14:57;;;;;;;1.10;1.00;;;4.90;98.00;;;;;;5089429;28;20539;-65
2020/12/28 10:17:25;;;;;;;1.20;1.10;;;4.80;98.00;;;;;;5091191;28;20545;-66
2020/12/28 10:19:51;;;;;;;1.10;1.00;;;4.90;98.00;;;;;;5089670;28;20457;-66
2020/12/28 10:22:18;;;;;;;1.10;1.00;;;4.80;98.00;;;;;;5091481;28;20459;-67
2020/12/28 10:24:45;;;;;;;1.83;1.73;;;4.80;98.00;;;;;;5089384;28;20464;-67
2020/12/28 10:27:11;;;;;;;1.33;1.20;;;4.80;98.00;;;;;;5090748;28;20459;-66
2020/12/28 10:29:38;;;;;;;1.23;1.17;;;4.70;98.00;;;;;;5089337;28;20460;-66
2020/12/28 10:32:04;;;;;;;1.50;1.30;;;4.80;98.00;;;;;;5091142;28;20481;-65
2020/12/28 10:34:32;;;;;;;1.30;1.20;;;4.70;98.00;;;;;;5089287;28;20460;-66
2020/12/28 10:36:58;;;;;;;2.30;1.37;;;4.70;98.00;;;;;;5091222;28;20495;-64
2020/12/28 10:39:25;;;;;;;1.10;0.90;;;4.70;98.00;;;;;;5087589;28;20459;-67
2020/12/28 10:41:52;;;;;;;1.30;1.27;;;4.70;98.00;;;;;;5091197;28;20494;-65
2020/12/28 10:44:19;;;;;;;2.03;1.53;;;4.60;98.00;;;;;;5089162;28;20456;-66
2020/12/28 10:46:58;;;;;;;1.87;1.57;;;4.60;98.00;;;;;;5091037;28;20451;-66
2020/12/28 10:49:35;;;;;;;1.30;1.17;;;4.70;98.00;;;;;;5088827;28;20467;-67
2020/12/28 10:52:04;;;;;;;1.50;1.17;;;4.80;98.00;;;;;;5091092;28;20457;-66
2020/12/28 10:54:31;;;;;;;1.10;0.90;;;5.00;98.00;;;;;;5088776;28;20543;-65
2020/12/28 10:56:58;;;;;;;1.20;1.10;;;5.20;98.00;;;;;;5090706;28;20491;-64
2020/12/28 10:59:24;;;;;;;1.10;1.00;;;5.20;98.00;;;;;;5088495;28;20468;-65
2020/12/28 11:01:51;;;;;;;1.33;1.20;;;5.40;98.00;;;;;;5093665;28;20452;-66
2020/12/28 11:04:17;;;;;;;1.20;1.13;;;5.40;98.00;;;;;;5095535;28;20893;-65
2020/12/28 11:06:45;;;;;;;4.17;2.13;;;5.20;98.00;;;;;;5090872;28;20476;-66
2020/12/28 11:09:11;;;;;;;1.20;1.10;;;5.10;98.00;;;;;;5088807;28;20461;-65
2020/12/28 11:11:38;;;;;;;1.10;0.90;;;5.20;98.00;;;;;;5090827;28;20468;-64
2020/12/28 11:14:04;;;;;;;1.10;1.00;;;5.20;98.00;;;;;;5087353;28;20868;-66
2020/12/28 11:16:38;;;;;;;1.20;1.00;;;5.30;98.00;;;;;;5090647;28;20934;-64
2020/12/28 11:19:05;;;;;;;1.20;1.10;;;5.20;98.00;;;;;;5092287;28;20487;-67
2020/12/28 11:21:32;;;;;;;1.20;1.13;;;5.20;98.00;;;;;;5094904;28;20461;-67
2020/12/28 11:24:01;;;;;;;1.20;1.10;;;5.10;98.00;;;;;;5092765;28;20839;-65
2020/12/28 11:26:28;;;;;;;1.30;1.10;;;5.10;98.00;;;;;;5095058;28;20452;-66
2020/12/28 11:28:55;;;;;;;1.20;1.10;;;5.00;98.00;;;;;;5092765;28;20510;-64
2020/12/28 11:31:22;;;;;;;1.97;1.57;;;4.90;98.00;;;;;;5094929;28;20483;-64
2020/12/28 11:33:48;;;;;;;1.20;1.20;;;4.90;98.00;;;;;;5094439;28;20460;-64
2020/12/28 11:36:16;;;;;;;2.13;1.37;;;5.00;98.00;;;;;;5094027;28;20554;-65
2020/12/28 11:38:43;;;;;;;1.43;1.33;;;4.90;98.00;;;;;;5094431;28;20473;-66
2020/12/28 11:41:12;;;;;;;1.10;0.90;;;4.90;98.00;;;;;;5092528;28;20513;-67
2020/12/28 11:43:39;;;;;;;1.20;1.10;;;5.00;98.00;;;;;;5094166;28;20459;-67
2020/12/28 11:46:07;;;;;;;1.30;1.13;;;5.00;98.00;;;;;;5092853;28;20457;-66
2020/12/28 11:48:33;;;;;;;1.20;1.00;;;5.10;98.00;;;;;;5094158;28;20946;-65
2020/12/28 11:51:03;;;;;;;1.10;0.90;;;5.00;98.00;;;;;;5092606;28;20456;-66
2020/12/28 11:53:29;;;;;;;1.27;1.27;;;5.00;98.00;;;;;;5094339;28;20448;-65
2020/12/28 11:56:03;;;;;;;1.10;0.90;;;5.00;98.00;;;;;;5092223;28;20477;-65
2020/12/28 11:58:32;;;;;;;1.90;1.73;;;5.00;98.00;;;;;;5093956;28;20456;-65
2020/12/28 12:00:58;;;;;;;1.10;1.00;;;5.10;98.00;;;;;;5092347;28;20463;-66
2020/12/28 12:03:28;;;;;;;4.90;2.97;;;5.10;98.00;;;;;;5094090;28;20469;-67
2020/12/28 12:05:55;;;;;;;1.10;1.00;;;5.20;98.00;;;;;;5092446;28;20451;-65
2020/12/28 12:08:29;;;;;;;1.20;1.10;;;5.20;98.00;;;;;;5093897;28;20523;-66
2020/12/28 12:10:56;;;;;;;3.60;2.00;;;5.30;98.00;;;;;;5092540;28;20660;-67
2020/12/28 12:13:31;;;;;;;1.10;1.00;;;5.20;98.00;;;;;;5093885;28;20960;-66
2020/12/28 12:15:58;;;;;;;1.30;1.10;;;5.30;98.00;;;;;;5092185;28;20452;-65
2020/12/28 12:18:25;;;;;;;1.40;1.00;;;5.30;98.00;;;;;;5093825;28;20484;-66
2020/12/28 12:20:52;;;;;;;1.87;1.40;;;5.30;98.00;;;;;;5091954;28;20457;-66
2020/12/28 12:23:20;;;;;;;1.50;1.40;;;5.30;98.00;;;;;;5093938;28;20467;-66
2020/12/28 12:25:46;;;;;;;1.20;1.00;;;5.30;98.00;;;;;;5091695;28;20453;-66
2020/12/28 12:28:15;;;;;;;1.60;1.30;;;5.30;98.00;;;;;;5092836;28;20453;-66
2020/12/28 12:30:42;;;;;;;1.30;1.23;;;5.40;98.00;;;;;;5090572;28;20546;-65
2020/12/28 12:33:11;;;;;;;1.43;1.30;;;5.50;98.00;;;;;;5093395;28;20959;-66
2020/12/28 12:35:37;;;;;;;1.20;0.90;;;5.60;98.00;;;;;;5090352;28;20453;-65
2020/12/28 12:38:04;;;;;;;1.20;1.00;;;5.60;98.00;;;;;;5093079;28;20517;-66
2020/12/28 12:40:32;;;;;;;1.43;1.13;;;5.70;98.00;;;;;;5091313;28;20556;-65
2020/12/28 12:43:00;;;;;;;1.77;1.23;;;5.80;98.00;;;;;;5093189;28;20457;-68
2020/12/28 12:45:26;;;;;;;1.57;1.47;;;5.80;98.00;;;;;;5091146;28;20459;-66
2020/12/28 12:47:54;;;;;;;1.20;0.90;;;5.80;98.00;;;;;;5093054;28;20454;-66
2020/12/28 12:50:20;;;;;;;1.20;1.00;;;5.90;98.00;;;;;;5091080;28;20938;-64
2020/12/28 12:52:48;;;;;;;1.20;1.00;;;5.90;98.00;;;;;;5093108;28;20487;-65
2020/12/28 12:55:14;;;;;;;1.20;0.90;;;6.00;98.00;;;;;;5090920;28;20521;-65
2020/12/28 12:57:41;;;;;;;1.20;0.90;;;6.10;98.00;;;;;;5092386;28;20845;-64
2020/12/28 13:00:08;;;;;;;4.07;1.83;;;6.10;98.00;;;;;;5090856;28;20468;-65
2020/12/28 13:02:39;;;;;;;1.20;1.20;;;6.10;98.00;;;;;;5093083;28;20775;-67